Aviation Digital Data Service (ADDS)

Output produced by METARs form (0010 UTC 24 May 2022)
found at http://www.aviationweather.gov/metar/data/
 
MRLB 232300Z 2400/2424 29006KT 9999 SCT030 TX33/2419Z TN20/2411Z 
     TEMPO 2400/2404 RA 
     TEMPO 2407/2413 09006KT 
     TEMPO 2421/2424 TSRA FEW020CB 
       
MROC 232300Z 2400/2424 07005KT 9999 SCT030 TX28/2418Z TN19/2411Z 
     TEMPO 2405/2411 VRB02KT 5000 BR BKN010 
     BECMG 2413/2416 24006KT 
     TEMPO 2421/2424 5000 TSRA SCT015CB BKN030 
       
MRLM 232300Z 2400/2424 07005KT 9999 SCT020 TX29/2420Z TN21/2411Z 
     BECMG 2402/2405 26005KT 
     TEMPO 2405/2411 RA FEW015TCU BKN020 
     BECMG 2415/2418 04006KT 
       
TAF MRPV 232300Z 2400/2424 29006KT 9999 FEW045 BKN100 TX28/2417Z TN18/2410Z 
     TEMPO 2400/2403 09007KT 
     TEMPO 2403/2409 5000 BR BKN010 
     TEMPO 2419/2423 TSRA 5000 BKN015CB